createdAt,value
2017-01-20T00:00:56.766Z,96.53
2017-01-20T00:02:05.423Z,96.44
2017-01-20T00:13:25.860Z,95.97
2017-01-20T00:14:34.504Z,96.25
2017-01-20T00:15:43.159Z,96.53
2017-01-20T00:16:51.805Z,96.34
2017-01-20T00:18:00.448Z,96.44
2017-01-20T00:19:09.088Z,96.06
2017-01-20T00:20:17.731Z,95.68
2017-01-20T00:21:26.375Z,95.68
2017-01-20T00:22:35.022Z,95.68
2017-01-20T00:23:43.674Z,95.87
2017-01-20T00:24:52.316Z,95.68
2017-01-20T00:26:00.986Z,95.87
2017-01-20T00:27:09.635Z,95.31
2017-01-20T00:28:18.281Z,95.87
2017-01-20T00:29:26.930Z,96.06
2017-01-20T00:30:35.603Z,96.06
2017-01-20T00:31:44.249Z,95.31
2017-01-20T00:32:52.890Z,95.5
2017-01-20T00:34:01.534Z,95.68
2017-01-20T00:35:10.179Z,95.87
2017-01-20T00:36:18.827Z,95.68
2017-01-20T00:37:27.487Z,95.97
2017-01-20T00:38:36.142Z,95.78
2017-01-20T00:39:44.792Z,95.78
2017-01-20T00:40:53.433Z,95.31
2017-01-20T00:42:02.073Z,95.87
2017-01-20T00:43:10.721Z,95.68
2017-01-20T00:44:19.364Z,96.15
2017-01-20T00:45:28.016Z,95.4
2017-01-20T00:46:36.657Z,95.68
2017-01-20T00:47:45.298Z,95.87
2017-01-20T00:48:53.938Z,95.5
2017-01-20T00:50:02.583Z,96.15
2017-01-20T00:51:11.234Z,95.5
2017-01-20T00:52:19.877Z,95.87
2017-01-20T00:53:28.523Z,95.68
2017-01-20T00:54:37.556Z,96.06
2017-01-20T00:55:46.197Z,95.78
2017-01-20T00:56:54.835Z,95.87
2017-01-20T00:58:03.478Z,96.34
2017-01-20T00:59:12.128Z,95.87
2017-01-20T01:00:20.770Z,95.59
2017-01-20T01:01:29.414Z,95.78
2017-01-20T01:02:38.054Z,95.78
2017-01-20T01:03:46.700Z,95.59
2017-01-20T01:04:55.347Z,95.5
2017-01-20T01:06:03.994Z,95.78
2017-01-20T01:07:12.646Z,95.87
2017-01-20T01:08:21.294Z,95.87
2017-01-20T01:09:29.937Z,96.44
2017-01-20T01:10:38.585Z,95.5
2017-01-20T01:11:47.244Z,95.5
2017-01-20T01:12:55.891Z,95.78
2017-01-20T01:14:04.540Z,96.25
2017-01-20T01:15:13.185Z,95.78
2017-01-20T01:16:21.829Z,95.97
2017-01-20T01:17:30.473Z,95.68
2017-01-20T01:18:39.124Z,95.87
2017-01-20T01:19:47.771Z,96.06
2017-01-20T01:20:56.422Z,95.21
2017-01-20T01:22:05.075Z,95.87
2017-01-20T01:23:13.728Z,95.68
2017-01-20T01:24:22.371Z,95.87
2017-01-20T01:25:31.023Z,95.87
2017-01-20T01:26:39.664Z,95.78
2017-01-20T01:27:48.309Z,95.78
2017-01-20T01:28:56.955Z,95.68
2017-01-20T01:30:05.607Z,95.68
2017-01-20T01:31:14.255Z,96.25
2017-01-20T01:32:22.905Z,96.34
2017-01-20T01:33:31.548Z,96.25
2017-01-20T01:34:40.200Z,95.87
2017-01-20T01:35:48.850Z,95.5
2017-01-20T01:36:57.498Z,95.21
2017-01-20T01:38:06.148Z,96.06
2017-01-20T01:39:14.799Z,95.73
2017-01-20T01:40:23.452Z,96.2
2017-01-20T01:41:32.105Z,96.39
2017-01-20T01:42:40.775Z,96.95
2017-01-20T01:43:49.416Z,96.39
2017-01-20T01:44:58.069Z,96.77
2017-01-20T01:46:06.716Z,96.67
2017-01-20T01:47:15.365Z,96.95
2017-01-20T01:48:24.018Z,96.2
2017-01-20T01:49:32.664Z,96.77
2017-01-20T01:50:41.313Z,97.05
2017-01-20T01:51:49.962Z,96.3
2017-01-20T01:52:58.614Z,96.2
2017-01-20T01:54:07.285Z,96.2
2017-01-20T01:55:15.942Z,96.2
2017-01-20T01:56:24.592Z,96.3
2017-01-20T01:57:33.243Z,96.39
2017-01-20T01:58:41.888Z,96.3
2017-01-20T01:59:50.533Z,95.64
2017-01-20T02:00:59.192Z,95.92
2017-01-20T02:02:07.850Z,96.2
2017-01-20T02:03:16.501Z,95.83
2017-01-20T02:04:25.151Z,95.83
2017-01-20T02:05:33.813Z,96.2
2017-01-20T02:06:42.476Z,96.2
2017-01-20T02:07:51.145Z,96.2
2017-01-20T02:08:59.792Z,96.67
2017-01-20T02:10:08.443Z,96.11
2017-01-20T02:11:17.090Z,96.11
2017-01-20T02:12:25.748Z,96.67
2017-01-20T02:13:34.392Z,96.48
2017-01-20T02:14:43.041Z,97.05
2017-01-20T02:15:51.691Z,96.95
2017-01-20T02:17:00.340Z,96.58
2017-01-20T02:18:08.986Z,96.95
2017-01-20T02:19:17.635Z,96.77
2017-01-20T02:20:26.289Z,96.86
2017-01-20T02:21:34.940Z,96.86
2017-01-20T02:22:43.590Z,96.86
2017-01-20T02:23:52.237Z,97.61
2017-01-20T02:25:00.890Z,97.14
2017-01-20T02:26:09.537Z,97.43
2017-01-20T02:27:18.204Z,97.43
2017-01-20T02:28:26.873Z,97.9
2017-01-20T02:29:35.524Z,97.24
2017-01-20T02:30:44.169Z,97.8
2017-01-20T02:31:52.823Z,97.52
2017-01-20T02:33:01.473Z,97.71
2017-01-20T02:34:10.124Z,98.09
2017-01-20T02:35:18.775Z,98.18
2017-01-20T02:36:27.432Z,98.18
2017-01-20T02:37:36.082Z,98.28
2017-01-20T02:38:44.728Z,98.47
2017-01-20T02:39:53.373Z,98.37
2017-01-20T02:41:02.024Z,98.56
2017-01-20T02:42:10.673Z,98.65
2017-01-20T02:43:19.319Z,98.98
2017-01-20T02:44:27.969Z,99.13
2017-01-20T02:45:36.619Z,99.41
2017-01-20T02:46:45.260Z,99.26
2017-01-20T02:47:53.907Z,99.08
2017-01-20T02:49:02.555Z,99.83
2017-01-20T02:50:11.223Z,99.83
2017-01-20T02:51:19.871Z,99.83
2017-01-20T02:52:28.525Z,99.83
2017-01-20T02:53:37.173Z,99.88
2017-01-20T02:54:45.823Z,99.69
2017-01-20T02:55:54.473Z,99.51
2017-01-20T02:57:03.123Z,99.32
2017-01-20T02:58:11.770Z,99.22
2017-01-20T02:59:20.450Z,99.6
2017-01-20T03:00:29.095Z,99.6
2017-01-20T03:01:37.745Z,99.03
2017-01-20T03:02:46.392Z,99.22
2017-01-20T03:03:55.046Z,99.41
2017-01-20T03:05:03.695Z,99.51
2017-01-20T03:06:12.342Z,99.13
2017-01-20T03:07:20.990Z,98.65
2017-01-20T03:08:29.640Z,98.84
2017-01-20T03:09:38.290Z,98.47
2017-01-20T03:10:46.939Z,98.37
2017-01-20T03:11:55.588Z,97.9
2017-01-20T03:13:04.234Z,97.43
2017-01-20T03:14:12.886Z,97.24
2017-01-20T03:15:21.537Z,96.86
2017-01-20T03:16:30.201Z,96.3
2017-01-20T03:17:38.849Z,96.48
2017-01-20T03:18:47.504Z,95.64
2017-01-20T03:19:56.153Z,95.64
2017-01-20T03:21:04.804Z,95.87
2017-01-20T03:22:13.455Z,95.12
2017-01-20T03:23:22.103Z,95.12
2017-01-20T03:24:30.746Z,95.12
2017-01-20T03:25:39.402Z,95.12
2017-01-20T03:26:48.055Z,94.55
2017-01-20T03:27:56.702Z,93.7
2017-01-20T03:29:05.353Z,93.89
2017-01-20T03:30:14.004Z,92.76
2017-01-20T03:31:22.646Z,92.95
2017-01-20T03:32:31.292Z,93.13
2017-01-20T03:33:39.977Z,92.38
2017-01-20T03:34:48.620Z,92.29
2017-01-20T03:35:57.266Z,92.38
2017-01-20T03:37:05.922Z,93.04
2017-01-20T03:38:14.574Z,93.84
2017-01-20T03:39:23.220Z,93.89
2017-01-20T03:40:31.866Z,94.13
2017-01-20T03:41:40.511Z,94.51
2017-01-20T03:42:49.160Z,94.98
2017-01-20T03:43:57.807Z,95.26
2017-01-20T03:45:06.491Z,95.45
2017-01-20T03:46:15.145Z,95.73
2017-01-20T03:47:23.798Z,95.83
2017-01-20T03:48:32.444Z,95.64
2017-01-20T03:49:41.090Z,96.39
2017-01-20T03:50:49.736Z,96.2
2017-01-20T03:51:58.381Z,96.3
2017-01-20T03:53:07.028Z,96.3
2017-01-20T03:54:15.673Z,96.48
2017-01-20T03:55:24.322Z,95.73
2017-01-20T03:56:32.972Z,96.2
2017-01-20T03:57:41.617Z,96.39
2017-01-20T03:58:50.271Z,95.83
2017-01-20T03:59:58.927Z,95.83
2017-01-20T04:01:07.572Z,95.64
2017-01-20T04:02:16.218Z,96.2
2017-01-20T04:03:24.861Z,95.64
2017-01-20T04:04:33.535Z,95.92
2017-01-20T04:05:42.180Z,95.45
2017-01-20T04:06:50.825Z,95.73
2017-01-20T04:07:59.467Z,95.64
2017-01-20T04:09:08.113Z,96.2
2017-01-20T04:10:16.760Z,96.01
2017-01-20T04:11:25.412Z,96.3
2017-01-20T04:12:34.087Z,96.58
2017-01-20T04:13:42.736Z,96.3
2017-01-20T04:14:51.390Z,95.64
2017-01-20T04:16:00.041Z,95.54
2017-01-20T04:17:08.689Z,95.26
2017-01-20T04:18:17.332Z,94.88
2017-01-20T04:19:25.990Z,95.17
2017-01-20T04:20:34.641Z,95.17
2017-01-20T04:21:43.292Z,95.07
2017-01-20T04:22:51.944Z,95.07
2017-01-20T04:24:00.596Z,94.88
2017-01-20T04:25:09.246Z,95.45
2017-01-20T04:26:17.901Z,95.92
2017-01-20T04:27:26.548Z,95.45
2017-01-20T04:28:35.192Z,94.79
2017-01-20T04:29:43.849Z,95.26
2017-01-20T04:30:52.492Z,95.54
2017-01-20T04:32:01.138Z,94.79
2017-01-20T04:33:09.785Z,94.79
2017-01-20T04:34:18.437Z,94.6
2017-01-20T04:35:27.081Z,94.6
2017-01-20T04:36:35.739Z,94.13
2017-01-20T04:37:44.382Z,94.03
2017-01-20T04:38:53.029Z,94.22
2017-01-20T04:40:01.706Z,94.41
2017-01-20T04:41:10.354Z,94.22
2017-01-20T04:42:19.002Z,93.94
2017-01-20T04:43:27.645Z,94.13
2017-01-20T04:44:36.291Z,94.22
2017-01-20T04:45:44.940Z,94.41
2017-01-20T04:46:53.587Z,94.13
2017-01-20T04:48:02.235Z,94.79
2017-01-20T04:49:10.885Z,94.6
2017-01-20T04:50:19.535Z,95.07
2017-01-20T04:51:28.186Z,94.98
2017-01-20T04:52:36.860Z,95.17
2017-01-20T04:53:45.507Z,95.07
2017-01-20T04:54:54.157Z,94.88
2017-01-20T04:56:02.806Z,95.73
2017-01-20T04:57:11.455Z,95.83
2017-01-20T04:58:20.104Z,95.83
2017-01-20T04:59:28.769Z,95.54
2017-01-20T05:00:37.412Z,96.01
2017-01-20T05:01:46.068Z,95.73
2017-01-20T05:02:54.715Z,95.83
2017-01-20T05:04:03.363Z,96.39
2017-01-20T05:05:12.010Z,96.3
2017-01-20T05:06:20.659Z,96.2
2017-01-20T05:07:29.306Z,96.39
2017-01-20T05:08:37.955Z,96.3
2017-01-20T05:09:46.607Z,96.67
2017-01-20T05:10:55.261Z,96.58
2017-01-20T05:12:03.918Z,96.67
2017-01-20T05:13:12.564Z,96.3
2017-01-20T05:14:21.213Z,96.2
2017-01-20T05:15:29.873Z,96.48
2017-01-20T05:16:38.524Z,96.77
2017-01-20T05:17:47.172Z,96.67
2017-01-20T05:18:55.826Z,97.43
2017-01-20T05:20:04.474Z,97.05
2017-01-20T05:21:13.126Z,97.43
2017-01-20T05:22:21.772Z,97.94
2017-01-20T05:23:30.419Z,98.13
2017-01-20T05:24:39.067Z,97.94
2017-01-20T05:25:47.719Z,98.41
2017-01-20T05:26:56.370Z,98.7
2017-01-20T05:28:05.020Z,98.79
2017-01-20T05:29:13.668Z,98.51
2017-01-20T05:30:22.323Z,98.47
2017-01-20T05:31:30.972Z,98.47
2017-01-20T05:32:39.619Z,98.47
2017-01-20T05:33:48.264Z,98.09
2017-01-20T05:34:56.913Z,98.09
2017-01-20T05:36:05.563Z,98.28
2017-01-20T05:37:14.207Z,98.47
2017-01-20T05:38:22.869Z,97.99
2017-01-20T05:39:31.522Z,97.99
2017-01-20T05:40:40.172Z,97.99
2017-01-20T05:41:48.816Z,97.71
2017-01-20T05:42:57.469Z,98.37
2017-01-20T05:44:06.117Z,98.28
2017-01-20T05:45:14.785Z,97.9
2017-01-20T05:46:23.443Z,98.28
2017-01-20T05:47:32.088Z,97.24
2017-01-20T05:48:40.739Z,97.8
2017-01-20T05:49:49.399Z,97.33
2017-01-20T05:50:58.044Z,96.58
2017-01-20T05:52:06.693Z,96.86
2017-01-20T05:53:15.351Z,96.2
2017-01-20T05:54:23.998Z,96.2
2017-01-20T05:55:32.649Z,95.45
2017-01-20T05:56:41.296Z,95.17
2017-01-20T05:57:49.945Z,93.94
2017-01-20T05:58:58.592Z,93.84
2017-01-20T06:00:07.239Z,93.18
2017-01-20T06:01:15.913Z,93.09
2017-01-20T06:02:24.559Z,93.09
2017-01-20T06:03:33.208Z,92.99
2017-01-20T06:04:41.848Z,93.09
2017-01-20T06:05:50.495Z,92.52
2017-01-20T06:06:59.142Z,91.82
2017-01-20T06:08:07.803Z,91.86
2017-01-20T06:09:16.457Z,91.72
2017-01-20T06:10:25.109Z,91.63
2017-01-20T06:11:33.771Z,91.06
2017-01-20T06:12:42.426Z,90.68
2017-01-20T06:13:51.079Z,90.68
2017-01-20T06:14:59.760Z,90.5
2017-01-20T06:16:08.407Z,90.5
2017-01-20T06:17:17.058Z,90.12
2017-01-20T06:18:25.704Z,90.31
2017-01-20T06:19:34.350Z,89.74
2017-01-20T06:20:42.994Z,89.83
2017-01-20T06:21:51.643Z,89.83
2017-01-20T06:23:00.290Z,89.83
2017-01-20T06:24:08.941Z,90.12
2017-01-20T06:25:17.589Z,89.17
2017-01-20T06:26:26.238Z,89.83
2017-01-20T06:27:34.887Z,90.12
2017-01-20T06:28:43.535Z,89.83
2017-01-20T06:29:52.184Z,89.93
2017-01-20T06:31:00.906Z,90.02
2017-01-20T06:32:09.552Z,89.93
2017-01-20T06:33:18.202Z,90.87
2017-01-20T06:34:26.858Z,90.68
2017-01-20T06:35:35.505Z,90.68
2017-01-20T06:36:44.157Z,90.87
2017-01-20T06:37:52.805Z,91.06
2017-01-20T06:39:01.459Z,90.73
2017-01-20T06:40:10.108Z,91.02
2017-01-20T06:41:18.764Z,90.92
2017-01-20T06:42:27.415Z,90.92
2017-01-20T06:43:36.070Z,91.58
2017-01-20T06:44:44.719Z,91.86
2017-01-20T06:45:53.373Z,91.72
2017-01-20T06:47:02.024Z,91.06
2017-01-20T06:48:10.674Z,91.06
2017-01-20T06:49:19.322Z,90.68
2017-01-20T06:50:27.973Z,90.12
2017-01-20T06:51:36.623Z,90.02
2017-01-20T06:52:45.268Z,89.64
2017-01-20T06:53:53.941Z,90.12
2017-01-20T06:55:02.588Z,89.45
2017-01-20T06:56:11.238Z,89.08
2017-01-20T06:57:19.895Z,89.36
2017-01-20T06:58:28.536Z,88.42
2017-01-20T06:59:37.188Z,88.6
2017-01-20T07:00:45.838Z,88.32
2017-01-20T07:01:54.487Z,88.42
2017-01-20T07:03:03.131Z,88.6
2017-01-20T07:04:11.800Z,88.13
2017-01-20T07:05:20.459Z,88.23
2017-01-20T07:06:29.112Z,87.95
2017-01-20T07:07:37.759Z,88.98
2017-01-20T07:08:46.438Z,88.7
2017-01-20T07:09:55.097Z,89.27
2017-01-20T07:11:03.760Z,90.02
2017-01-20T07:12:12.412Z,89.93
2017-01-20T07:13:21.060Z,89.74
2017-01-20T07:14:29.709Z,90.26
2017-01-20T07:15:38.364Z,90.68
2017-01-20T07:16:47.015Z,90.64
2017-01-20T07:17:55.669Z,90.31
2017-01-20T07:19:04.346Z,90.17
2017-01-20T07:20:12.995Z,90.83
2017-01-20T07:21:21.654Z,90.78
2017-01-20T07:22:30.304Z,90.92
2017-01-20T07:23:38.947Z,91.2
2017-01-20T07:24:47.592Z,91.77
2017-01-20T07:25:56.271Z,91.49
2017-01-20T07:27:04.921Z,92.14
2017-01-20T07:28:13.572Z,92.33
2017-01-20T07:29:22.217Z,92.24
2017-01-20T07:30:30.859Z,92.33
2017-01-20T07:31:39.518Z,92.52
2017-01-20T07:32:48.193Z,92.14
2017-01-20T07:33:56.843Z,93.18
2017-01-20T07:35:05.486Z,93.28
2017-01-20T07:36:14.129Z,93.09
2017-01-20T07:37:22.783Z,92.99
2017-01-20T07:38:31.433Z,93.84
2017-01-20T07:39:40.099Z,93.94
2017-01-20T07:40:48.742Z,93.94
2017-01-20T07:41:57.389Z,93.75
2017-01-20T07:43:06.037Z,93.28
2017-01-20T07:44:14.685Z,93.56
2017-01-20T07:45:23.348Z,93.09
2017-01-20T07:46:32.002Z,92.33
2017-01-20T07:47:40.648Z,92.9
2017-01-20T07:48:49.303Z,92.33
2017-01-20T07:49:57.976Z,92.33
2017-01-20T07:51:06.622Z,93.09
2017-01-20T07:52:15.270Z,91.2
2017-01-20T07:53:23.917Z,91.77
2017-01-20T07:54:32.566Z,91.06
2017-01-20T07:55:41.210Z,91.06
2017-01-20T07:56:49.863Z,91.35
2017-01-20T07:57:58.507Z,91.25
2017-01-20T07:59:07.154Z,90.21
2017-01-20T08:00:15.808Z,90.5
2017-01-20T08:01:24.465Z,91.06
2017-01-20T08:02:33.110Z,91.25
2017-01-20T08:03:41.771Z,90.31
2017-01-20T08:04:50.417Z,90.02
2017-01-20T08:05:59.445Z,90.21
2017-01-20T08:07:08.102Z,91.06
2017-01-20T08:08:16.751Z,91.35
2017-01-20T08:09:25.405Z,90.97
2017-01-20T08:10:34.060Z,91.35
2017-01-20T08:11:42.707Z,89.74
2017-01-20T08:12:51.401Z,89.74
2017-01-20T08:14:00.056Z,89.83
2017-01-20T08:15:09.088Z,89.27
2017-01-20T08:16:17.737Z,88.98
2017-01-20T08:17:26.406Z,88.6
2017-01-20T08:18:35.058Z,88.23
2017-01-20T08:19:43.709Z,87.29
2017-01-20T08:20:52.355Z,86.72
2017-01-20T08:22:01.012Z,85.96
2017-01-20T08:23:09.664Z,85.87
2017-01-20T08:24:18.313Z,86.53
2017-01-20T08:25:26.958Z,85.68
2017-01-20T08:26:35.603Z,86.57
2017-01-20T08:27:44.636Z,85.91
2017-01-20T08:28:53.285Z,85.82
2017-01-20T08:30:01.949Z,85.82
2017-01-20T08:31:10.611Z,86.19
2017-01-20T08:32:19.258Z,85.82
2017-01-20T08:33:27.911Z,85.53
2017-01-20T08:34:36.556Z,85.35
2017-01-20T08:35:45.207Z,85.53
2017-01-20T08:36:53.856Z,84.97
2017-01-20T08:38:02.888Z,84.5
2017-01-20T08:39:11.536Z,84.22
2017-01-20T08:40:20.187Z,83.84
2017-01-20T08:41:28.842Z,83.08
2017-01-20T08:42:37.489Z,82.99
2017-01-20T08:43:46.136Z,83.46
2017-01-20T08:44:55.169Z,83.55
2017-01-20T08:46:03.821Z,82.89
2017-01-20T08:47:12.467Z,82.14
2017-01-20T08:48:21.122Z,80.82
2017-01-20T08:49:29.775Z,80.72
2017-01-20T08:50:38.424Z,81.29
2017-01-20T08:51:47.074Z,81.2
2017-01-20T08:52:55.729Z,80.34
2017-01-20T08:54:04.380Z,81.01
2017-01-20T08:55:13.031Z,80.34
2017-01-20T08:56:21.679Z,80.34
2017-01-20T08:57:30.326Z,80.15
2017-01-20T08:58:38.971Z,79.87
2017-01-20T08:59:47.627Z,79.82
2017-01-20T09:00:56.288Z,80.19
2017-01-20T09:02:04.946Z,79.63
2017-01-20T09:03:13.594Z,79.72
2017-01-20T09:04:22.243Z,79.72
2017-01-20T09:05:30.900Z,81.14
2017-01-20T09:06:39.549Z,79.06
2017-01-20T09:07:48.197Z,78.78
2017-01-20T09:08:56.844Z,79.82
2017-01-20T09:10:05.498Z,80.29
2017-01-20T09:11:14.150Z,78.68
2017-01-20T09:12:22.801Z,79.16
2017-01-20T09:13:31.451Z,78.59
2017-01-20T09:14:40.118Z,78.5
2017-01-20T09:15:48.768Z,78.97
2017-01-20T09:16:57.420Z,79.35
2017-01-20T09:18:06.064Z,79.06
2017-01-20T09:19:14.714Z,79.16
2017-01-20T09:20:23.365Z,78.78
2017-01-20T09:21:32.012Z,78.5
2017-01-20T09:22:40.665Z,78.87
2017-01-20T09:23:49.315Z,78.12
2017-01-20T09:24:57.969Z,77.17
2017-01-20T09:26:06.617Z,76.7
2017-01-20T09:27:15.273Z,78.02
2017-01-20T09:28:23.920Z,77.74
2017-01-20T09:29:32.577Z,78.59
2017-01-20T09:30:41.228Z,78.4
2017-01-20T09:31:49.876Z,78.68
2017-01-20T09:32:58.525Z,78.31
2017-01-20T09:34:07.173Z,77.87
2017-01-20T09:35:15.816Z,79.1
2017-01-20T09:36:24.475Z,78.72
2017-01-20T09:37:33.121Z,79.86
2017-01-20T09:38:41.780Z,79.76
2017-01-20T09:39:50.476Z,78.72
2017-01-20T09:40:59.134Z,79.19
2017-01-20T09:42:07.785Z,79.48
2017-01-20T09:43:16.432Z,79.1
2017-01-20T09:44:25.103Z,79.1
2017-01-20T09:45:33.763Z,78.25
2017-01-20T09:46:42.415Z,78.06
2017-01-20T09:47:51.065Z,78.81
2017-01-20T09:48:59.747Z,78.72
2017-01-20T09:50:08.406Z,79.48
2017-01-20T09:51:17.055Z,77.59
2017-01-20T09:52:25.715Z,78.81
2017-01-20T09:53:34.365Z,78.63
2017-01-20T09:54:43.016Z,77.72
2017-01-20T09:55:51.670Z,76.12
2017-01-20T09:57:00.327Z,75.26
2017-01-20T09:58:08.975Z,75.26
2017-01-20T09:59:17.631Z,75.17
2017-01-20T10:00:26.284Z,75.07
2017-01-20T10:01:34.958Z,74.41
2017-01-20T10:02:43.603Z,72.99
2017-01-20T10:03:52.264Z,72.05
2017-01-20T10:05:00.916Z,71.2
2017-01-20T10:06:09.571Z,72.14
2017-01-20T10:07:18.223Z,73.18
2017-01-20T10:08:26.874Z,74.6
2017-01-20T10:09:35.521Z,72.71
2017-01-20T10:10:44.176Z,70.92
2017-01-20T10:11:52.828Z,72.05
2017-01-20T10:13:01.476Z,71.67
2017-01-20T10:14:10.135Z,70.35
2017-01-20T10:15:18.802Z,69.02
2017-01-20T10:16:27.447Z,70.25
2017-01-20T10:17:36.097Z,70.73
2017-01-20T10:18:44.751Z,71.77
2017-01-20T10:19:53.437Z,71.95
2017-01-20T10:21:02.089Z,71.67
2017-01-20T10:22:10.739Z,71.11
2017-01-20T10:23:19.413Z,71.77
2017-01-20T10:24:28.066Z,70.73
2017-01-20T10:25:36.718Z,71.77
2017-01-20T10:26:45.368Z,71.9
2017-01-20T10:27:54.015Z,69.82
2017-01-20T10:29:02.661Z,69.15
2017-01-20T10:30:11.314Z,69.06
2017-01-20T10:31:19.966Z,69.44
2017-01-20T10:32:28.622Z,68.4
2017-01-20T10:33:37.306Z,67.36
2017-01-20T10:34:45.960Z,67.36
2017-01-20T10:35:54.617Z,68.12
2017-01-20T10:37:03.272Z,67.83
2017-01-20T10:38:11.932Z,68.21
2017-01-20T10:39:20.586Z,69.06
2017-01-20T10:40:29.235Z,69.15
2017-01-20T10:41:37.890Z,66.03
2017-01-20T10:42:46.547Z,66.41
2017-01-20T10:43:55.203Z,67.36
2017-01-20T10:45:03.858Z,68.77
2017-01-20T10:46:12.505Z,69.25
2017-01-20T10:47:21.155Z,67.93
2017-01-20T10:48:29.811Z,66.06
2017-01-20T10:49:38.468Z,66.25
2017-01-20T10:50:47.123Z,65.84
2017-01-20T10:51:55.783Z,66.06
2017-01-20T10:53:04.451Z,66.03
2017-01-20T10:54:13.104Z,66.06
2017-01-20T10:55:22.172Z,66.25
2017-01-20T10:56:30.823Z,67.68
2017-01-20T10:57:39.470Z,68.52
2017-01-20T10:58:48.172Z,69
2017-01-20T10:59:56.823Z,67.77
2017-01-20T11:01:05.478Z,66.92
2017-01-20T11:02:14.129Z,64.55
2017-01-20T11:03:22.791Z,64.93
2017-01-20T11:04:31.442Z,66.25
2017-01-20T11:05:40.099Z,67.3
2017-01-20T11:06:48.768Z,66.35
2017-01-20T11:07:57.418Z,66.44
2017-01-20T11:09:06.073Z,66.82
2017-01-20T11:10:14.724Z,68.05
2017-01-20T11:11:23.382Z,66.16
2017-01-20T11:12:32.042Z,66.92
2017-01-20T11:13:40.698Z,68.15
2017-01-20T11:14:49.350Z,67.39
2017-01-20T11:15:58.007Z,68.33
2017-01-20T11:17:06.665Z,69
2017-01-20T11:18:15.317Z,68.71
2017-01-20T11:19:23.977Z,67.49
2017-01-20T11:20:32.635Z,66.82
2017-01-20T11:21:41.294Z,63.89
2017-01-20T11:22:50.339Z,64.17
2017-01-20T11:23:58.996Z,65.4
2017-01-20T11:25:07.657Z,64.45
2017-01-20T11:26:16.309Z,64.55
2017-01-20T11:27:24.961Z,65.31
2017-01-20T11:28:33.616Z,65.4
2017-01-20T11:29:42.274Z,64.93
2017-01-20T11:30:50.929Z,64.07
2017-01-20T11:31:59.586Z,64.55
2017-01-20T11:33:08.246Z,64.74
2017-01-20T11:34:16.905Z,64.55
2017-01-20T11:35:25.562Z,63.23
2017-01-20T11:36:34.218Z,62.28
2017-01-20T11:37:42.879Z,61.8
2017-01-20T11:38:51.529Z,62.56
2017-01-20T11:40:00.190Z,63.04
2017-01-20T11:41:08.849Z,62.47
2017-01-20T11:42:17.517Z,62.37
2017-01-20T11:43:26.178Z,63.42
2017-01-20T11:44:34.834Z,62.28
2017-01-20T11:45:43.492Z,62.85
2017-01-20T11:46:52.145Z,63.45
2017-01-20T11:48:00.801Z,62.78
2017-01-20T11:49:09.469Z,62.31
2017-01-20T11:50:18.123Z,63.73
2017-01-20T11:51:26.777Z,63.45
2017-01-20T11:52:35.430Z,64.58
2017-01-20T11:53:44.086Z,65.44
2017-01-20T11:54:52.741Z,63.92
2017-01-20T11:56:01.395Z,64.58
2017-01-20T11:57:10.052Z,64.49
2017-01-20T11:58:18.733Z,64.58
2017-01-20T11:59:27.383Z,65.63
2017-01-20T12:00:36.041Z,66.57
2017-01-20T12:01:44.696Z,65.34
2017-01-20T12:02:53.350Z,65.44
2017-01-20T12:04:02.028Z,62.69
2017-01-20T12:05:10.683Z,64.58
2017-01-20T12:06:19.347Z,65.63
2017-01-20T12:07:28.025Z,63.35
2017-01-20T12:08:36.677Z,62.78
2017-01-20T12:09:45.325Z,61.74
2017-01-20T12:10:53.980Z,62.34
2017-01-20T12:12:02.661Z,61.65
2017-01-20T12:13:11.317Z,63.29
2017-01-20T12:14:19.973Z,62.69
2017-01-20T12:15:28.632Z,61.68
2017-01-20T12:16:37.288Z,61.11
2017-01-20T12:17:45.940Z,61.58
2017-01-20T12:18:54.604Z,62.72
2017-01-20T12:20:03.258Z,63.2
2017-01-20T12:21:11.915Z,62.24
2017-01-20T12:22:20.573Z,60.73
2017-01-20T12:23:29.230Z,61.58
2017-01-20T12:24:37.885Z,63.01
2017-01-20T12:25:46.575Z,62.91
2017-01-20T12:26:55.234Z,64.23
2017-01-20T12:28:03.887Z,63.76
2017-01-20T12:29:12.540Z,61.49
2017-01-20T12:30:21.190Z,61.68
2017-01-20T12:31:29.843Z,61.77
2017-01-20T12:32:38.498Z,61.96
2017-01-20T12:33:47.147Z,63.29
2017-01-20T12:34:55.802Z,62.05
2017-01-20T12:36:04.454Z,62.08
2017-01-20T12:37:13.115Z,63.13
2017-01-20T12:38:21.767Z,62.08
2017-01-20T12:39:30.426Z,59.81
2017-01-20T12:40:39.073Z,61.24
2017-01-20T12:41:47.730Z,62.47
2017-01-20T12:42:56.387Z,61.14
2017-01-20T12:44:05.042Z,61.43
2017-01-20T12:45:13.699Z,61.05
2017-01-20T12:46:22.757Z,62.28
2017-01-20T12:47:31.414Z,64.36
2017-01-20T12:48:40.068Z,65.5
2017-01-20T12:49:48.750Z,63.7
2017-01-20T12:50:57.410Z,64.27
2017-01-20T12:52:06.068Z,64.46
2017-01-20T12:53:14.750Z,63.98
2017-01-20T12:54:23.410Z,63.89
2017-01-20T12:55:32.060Z,64.08
2017-01-20T12:56:40.718Z,63.89
2017-01-20T12:57:49.370Z,64.17
2017-01-20T12:58:58.408Z,64.46
2017-01-20T13:00:07.065Z,65.78
2017-01-20T13:01:16.105Z,63.04
2017-01-20T13:02:24.757Z,60.47
2017-01-20T13:03:33.443Z,61.33
2017-01-20T13:04:42.102Z,61.43
2017-01-20T13:05:50.761Z,60.95
2017-01-20T13:06:59.417Z,61.05
2017-01-20T13:08:08.075Z,60.28
2017-01-20T13:09:16.735Z,62.75
2017-01-20T13:10:25.393Z,61.33
2017-01-20T13:11:34.047Z,61.9
2017-01-20T13:12:42.707Z,62.66
2017-01-20T13:13:51.367Z,62.85
2017-01-20T13:15:00.034Z,62.18
2017-01-20T13:16:08.693Z,62.37
2017-01-20T13:17:17.353Z,64.17
2017-01-20T13:18:26.007Z,59.53
2017-01-20T13:19:34.665Z,61.14
2017-01-20T13:20:43.329Z,62.66
2017-01-20T13:21:51.985Z,61.52
2017-01-20T13:23:00.640Z,61.8
2017-01-20T13:24:09.301Z,62.08
2017-01-20T13:25:17.969Z,64.17
2017-01-20T13:26:26.622Z,65.31
2017-01-20T13:27:35.281Z,61.99
2017-01-20T13:28:43.943Z,64.36
2017-01-20T13:29:52.597Z,64.84
2017-01-20T13:31:01.248Z,64.17
2017-01-20T13:32:09.905Z,64.27
2017-01-20T13:33:18.567Z,64.65
2017-01-20T13:34:27.221Z,64.84
2017-01-20T13:35:35.874Z,63.51
2017-01-20T13:36:44.522Z,65.88
2017-01-20T13:37:53.174Z,66.93
2017-01-20T13:39:01.837Z,68.91
2017-01-20T13:40:10.490Z,67.02
2017-01-20T13:41:19.149Z,67.11
2017-01-20T13:42:27.804Z,68.35
2017-01-20T13:43:36.463Z,69.01
2017-01-20T13:44:45.122Z,69.01
2017-01-20T13:45:53.780Z,69.77
2017-01-20T13:47:02.436Z,65.31
2017-01-20T13:48:11.093Z,66.26
2017-01-20T13:49:19.758Z,65.22
2017-01-20T13:50:28.412Z,64.36
2017-01-20T13:51:37.071Z,67.11
2017-01-20T13:52:45.758Z,66.16
2017-01-20T13:53:54.421Z,67.02
2017-01-20T13:55:03.072Z,62.85
2017-01-20T13:56:11.727Z,65.12
2017-01-20T13:57:20.380Z,65.5
2017-01-20T13:58:29.034Z,66.86
2017-01-20T13:59:37.688Z,68.38
2017-01-20T14:00:46.338Z,68.76
2017-01-20T14:01:54.998Z,68.48
2017-01-20T14:03:03.669Z,66.39
2017-01-20T14:04:12.325Z,68.48
2017-01-20T14:05:21.003Z,69.33
2017-01-20T14:06:29.655Z,68
2017-01-20T14:07:38.315Z,67.24
2017-01-20T14:08:46.972Z,67.52
2017-01-20T14:09:55.633Z,68.38
2017-01-20T14:11:04.289Z,69.61
2017-01-20T14:12:12.945Z,68.25
2017-01-20T14:13:21.595Z,70.05
2017-01-20T14:14:30.257Z,67.33
2017-01-20T14:15:38.926Z,67.62
2017-01-20T14:16:47.586Z,69.42
2017-01-20T14:17:56.245Z,68.66
2017-01-20T14:19:04.903Z,70.09
2017-01-20T14:20:13.561Z,72.08
2017-01-20T14:21:22.248Z,69.33
2017-01-20T14:22:30.904Z,69.8
2017-01-20T14:23:39.558Z,70.28
2017-01-20T14:24:48.219Z,69.71
2017-01-20T14:25:56.883Z,68.95
2017-01-20T14:27:05.536Z,69.8
2017-01-20T14:28:14.193Z,65.63
2017-01-20T14:29:22.847Z,65.44
2017-01-20T14:30:31.528Z,66.2
2017-01-20T14:31:40.180Z,65.53
2017-01-20T14:32:48.833Z,66.45
2017-01-20T14:33:57.490Z,67.96
2017-01-20T14:35:06.147Z,68.73
2017-01-20T14:36:14.812Z,67.21
2017-01-20T14:37:23.464Z,67.49
2017-01-20T14:38:32.119Z,66.16
2017-01-20T14:39:40.775Z,64.27
2017-01-20T14:40:49.438Z,66.26
2017-01-20T14:41:58.094Z,67.49
2017-01-20T14:43:06.748Z,68.63
2017-01-20T14:44:15.410Z,65.69
2017-01-20T14:45:24.071Z,65.5
2017-01-20T14:46:32.723Z,66.83
2017-01-20T14:47:41.375Z,67.96
2017-01-20T14:48:50.030Z,67.74
2017-01-20T14:49:58.691Z,67.46
2017-01-20T14:51:07.381Z,69.82
2017-01-20T14:52:16.041Z,68.59
2017-01-20T14:53:24.695Z,68.5
2017-01-20T14:54:33.349Z,69.92
2017-01-20T14:55:42.020Z,70.68
2017-01-20T14:56:50.682Z,72.1
2017-01-20T14:57:59.342Z,72.29